sensor_id;sensor_type;location;lat;lon;timestamp;P1;durP1;ratioP1;P2;durP2;ratioP2
71648;SDS011;59492;45.638;11.714;2023-01-25T00:02:03;5.30;;;4.40;;
71648;SDS011;59492;45.638;11.714;2023-01-25T00:04:29;5.10;;;4.10;;
71648;SDS011;59492;45.638;11.714;2023-01-25T00:06:55;4.60;;;4.00;;
71648;SDS011;59492;45.638;11.714;2023-01-25T00:09:21;6.20;;;4.10;;
71648;SDS011;59492;45.638;11.714;2023-01-25T00:11:48;5.50;;;4.40;;
71648;SDS011;59492;45.638;11.714;2023-01-25T00:14:14;5.10;;;4.50;;
71648;SDS011;59492;45.638;11.714;2023-01-25T00:16:40;4.50;;;4.00;;
71648;SDS011;59492;45.638;11.714;2023-01-25T00:19:07;5.30;;;4.00;;
71648;SDS011;59492;45.638;11.714;2023-01-25T00:21:34;4.70;;;4.20;;
71648;SDS011;59492;45.638;11.714;2023-01-25T00:24:00;4.70;;;4.10;;
71648;SDS011;59492;45.638;11.714;2023-01-25T00:26:28;4.70;;;3.90;;
71648;SDS011;59492;45.638;11.714;2023-01-25T00:28:55;4.90;;;4.10;;
71648;SDS011;59492;45.638;11.714;2023-01-25T00:34:00;5.00;;;3.90;;
71648;SDS011;59492;45.638;11.714;2023-01-25T00:38:57;5.90;;;4.20;;
71648;SDS011;59492;45.638;11.714;2023-01-25T00:41:22;5.40;;;4.00;;
71648;SDS011;59492;45.638;11.714;2023-01-25T00:43:48;4.50;;;3.80;;
71648;SDS011;59492;45.638;11.714;2023-01-25T00:46:14;5.70;;;4.20;;
71648;SDS011;59492;45.638;11.714;2023-01-25T00:48:42;6.40;;;3.90;;
71648;SDS011;59492;45.638;11.714;2023-01-25T00:51:07;4.50;;;4.00;;
71648;SDS011;59492;45.638;11.714;2023-01-25T00:53:33;4.30;;;3.90;;
71648;SDS011;59492;45.638;11.714;2023-01-25T00:55:59;4.50;;;4.00;;
71648;SDS011;59492;45.638;11.714;2023-01-25T00:58:25;5.00;;;3.90;;
71648;SDS011;59492;45.638;11.714;2023-01-25T01:00:52;4.90;;;4.40;;
71648;SDS011;59492;45.638;11.714;2023-01-25T01:03:18;4.80;;;4.30;;
71648;SDS011;59492;45.638;11.714;2023-01-25T01:05:43;4.90;;;4.40;;
71648;SDS011;59492;45.638;11.714;2023-01-25T01:08:09;3.90;;;3.60;;
71648;SDS011;59492;45.638;11.714;2023-01-25T01:10:36;5.40;;;4.10;;
71648;SDS011;59492;45.638;11.714;2023-01-25T01:13:02;5.00;;;4.30;;
71648;SDS011;59492;45.638;11.714;2023-01-25T01:15:27;6.10;;;4.10;;
71648;SDS011;59492;45.638;11.714;2023-01-25T01:17:53;4.80;;;4.20;;
71648;SDS011;59492;45.638;11.714;2023-01-25T01:20:19;5.00;;;4.00;;
71648;SDS011;59492;45.638;11.714;2023-01-25T01:22:45;6.60;;;4.00;;
71648;SDS011;59492;45.638;11.714;2023-01-25T01:25:10;4.70;;;4.20;;
71648;SDS011;59492;45.638;11.714;2023-01-25T01:27:37;5.00;;;4.00;;
71648;SDS011;59492;45.638;11.714;2023-01-25T01:30:03;4.60;;;4.10;;
71648;SDS011;59492;45.638;11.714;2023-01-25T01:32:29;4.90;;;4.30;;
71648;SDS011;59492;45.638;11.714;2023-01-25T01:34:55;5.10;;;4.20;;
71648;SDS011;59492;45.638;11.714;2023-01-25T01:37:20;5.60;;;4.10;;
71648;SDS011;59492;45.638;11.714;2023-01-25T01:39:46;4.20;;;3.80;;
71648;SDS011;59492;45.638;11.714;2023-01-25T01:42:12;5.30;;;3.70;;
71648;SDS011;59492;45.638;11.714;2023-01-25T01:44:45;4.20;;;3.80;;
71648;SDS011;59492;45.638;11.714;2023-01-25T01:47:13;4.80;;;4.20;;
71648;SDS011;59492;45.638;11.714;2023-01-25T01:50:01;4.90;;;4.10;;
71648;SDS011;59492;45.638;11.714;2023-01-25T01:52:32;4.30;;;3.80;;
71648;SDS011;59492;45.638;11.714;2023-01-25T01:55:09;4.60;;;4.20;;
71648;SDS011;59492;45.638;11.714;2023-01-25T01:57:43;4.10;;;3.70;;
71648;SDS011;59492;45.638;11.714;2023-01-25T02:00:14;4.20;;;3.80;;
71648;SDS011;59492;45.638;11.714;2023-01-25T02:02:43;4.50;;;3.60;;
71648;SDS011;59492;45.638;11.714;2023-01-25T02:05:16;4.70;;;4.20;;
71648;SDS011;59492;45.638;11.714;2023-01-25T02:07:47;4.40;;;3.80;;
71648;SDS011;59492;45.638;11.714;2023-01-25T02:10:15;4.50;;;4.00;;
71648;SDS011;59492;45.638;11.714;2023-01-25T02:12:42;5.50;;;4.30;;
71648;SDS011;59492;45.638;11.714;2023-01-25T02:15:09;4.30;;;3.90;;
71648;SDS011;59492;45.638;11.714;2023-01-25T02:17:36;4.80;;;3.80;;
71648;SDS011;59492;45.638;11.714;2023-01-25T02:23:02;5.20;;;4.00;;
71648;SDS011;59492;45.638;11.714;2023-01-25T02:25:36;4.30;;;3.70;;
71648;SDS011;59492;45.638;11.714;2023-01-25T02:28:10;4.30;;;3.90;;
71648;SDS011;59492;45.638;11.714;2023-01-25T02:30:42;4.00;;;3.60;;
71648;SDS011;59492;45.638;11.714;2023-01-25T02:33:08;4.40;;;4.00;;
71648;SDS011;59492;45.638;11.714;2023-01-25T02:35:45;4.70;;;3.70;;
71648;SDS011;59492;45.638;11.714;2023-01-25T02:38:16;4.40;;;3.70;;
71648;SDS011;59492;45.638;11.714;2023-01-25T02:40:47;9.10;;;4.30;;
71648;SDS011;59492;45.638;11.714;2023-01-25T02:43:16;4.40;;;4.00;;
71648;SDS011;59492;45.638;11.714;2023-01-25T02:45:46;5.60;;;4.30;;
71648;SDS011;59492;45.638;11.714;2023-01-25T02:48:16;4.70;;;4.20;;
71648;SDS011;59492;45.638;11.714;2023-01-25T02:50:42;4.30;;;3.90;;
71648;SDS011;59492;45.638;11.714;2023-01-25T02:53:07;4.10;;;3.70;;
71648;SDS011;59492;45.638;11.714;2023-01-25T02:55:33;4.50;;;3.80;;
71648;SDS011;59492;45.638;11.714;2023-01-25T02:57:58;5.00;;;4.00;;
71648;SDS011;59492;45.638;11.714;2023-01-25T03:00:24;5.40;;;4.20;;
71648;SDS011;59492;45.638;11.714;2023-01-25T03:02:49;4.20;;;3.60;;
71648;SDS011;59492;45.638;11.714;2023-01-25T03:05:15;4.20;;;3.80;;
71648;SDS011;59492;45.638;11.714;2023-01-25T03:07:41;4.60;;;4.00;;
71648;SDS011;59492;45.638;11.714;2023-01-25T03:10:06;4.60;;;3.70;;
71648;SDS011;59492;45.638;11.714;2023-01-25T03:12:32;3.70;;;3.40;;
71648;SDS011;59492;45.638;11.714;2023-01-25T03:14:58;4.20;;;3.50;;
71648;SDS011;59492;45.638;11.714;2023-01-25T03:17:23;6.20;;;3.80;;
71648;SDS011;59492;45.638;11.714;2023-01-25T03:19:49;4.30;;;3.90;;
71648;SDS011;59492;45.638;11.714;2023-01-25T03:22:15;5.00;;;3.90;;
71648;SDS011;59492;45.638;11.714;2023-01-25T03:24:40;3.70;;;3.40;;
71648;SDS011;59492;45.638;11.714;2023-01-25T03:27:06;4.10;;;3.70;;
71648;SDS011;59492;45.638;11.714;2023-01-25T03:29:43;3.60;;;3.20;;
71648;SDS011;59492;45.638;11.714;2023-01-25T03:32:09;8.50;;;3.90;;
71648;SDS011;59492;45.638;11.714;2023-01-25T03:34:36;4.20;;;3.80;;
71648;SDS011;59492;45.638;11.714;2023-01-25T03:37:01;4.10;;;3.70;;
71648;SDS011;59492;45.638;11.714;2023-01-25T03:39:27;4.70;;;3.90;;
71648;SDS011;59492;45.638;11.714;2023-01-25T03:41:53;4.00;;;3.50;;
71648;SDS011;59492;45.638;11.714;2023-01-25T03:44:19;4.10;;;3.60;;
71648;SDS011;59492;45.638;11.714;2023-01-25T03:46:44;4.40;;;3.50;;
71648;SDS011;59492;45.638;11.714;2023-01-25T03:49:10;4.10;;;3.70;;
71648;SDS011;59492;45.638;11.714;2023-01-25T03:51:36;4.40;;;3.70;;
71648;SDS011;59492;45.638;11.714;2023-01-25T03:54:02;4.80;;;4.00;;
71648;SDS011;59492;45.638;11.714;2023-01-25T03:56:27;4.90;;;4.00;;
71648;SDS011;59492;45.638;11.714;2023-01-25T03:58:53;4.40;;;3.80;;
71648;SDS011;59492;45.638;11.714;2023-01-25T04:01:18;4.60;;;3.80;;
71648;SDS011;59492;45.638;11.714;2023-01-25T04:03:44;4.30;;;3.90;;
71648;SDS011;59492;45.638;11.714;2023-01-25T04:06:10;3.90;;;3.50;;
71648;SDS011;59492;45.638;11.714;2023-01-25T04:08:35;4.50;;;3.80;;
71648;SDS011;59492;45.638;11.714;2023-01-25T04:11:03;4.00;;;3.60;;
71648;SDS011;59492;45.638;11.714;2023-01-25T04:13:32;4.70;;;3.80;;
71648;SDS011;59492;45.638;11.714;2023-01-25T04:16:02;4.50;;;3.40;;
71648;SDS011;59492;45.638;11.714;2023-01-25T04:18:29;4.10;;;3.60;;
71648;SDS011;59492;45.638;11.714;2023-01-25T04:20:55;4.50;;;3.60;;
71648;SDS011;59492;45.638;11.714;2023-01-25T04:23:21;4.30;;;3.50;;
71648;SDS011;59492;45.638;11.714;2023-01-25T04:25:54;3.90;;;3.50;;
71648;SDS011;59492;45.638;11.714;2023-01-25T04:28:21;3.60;;;3.30;;
71648;SDS011;59492;45.638;11.714;2023-01-25T04:30:48;4.30;;;3.60;;
71648;SDS011;59492;45.638;11.714;2023-01-25T04:33:14;3.60;;;3.20;;
71648;SDS011;59492;45.638;11.714;2023-01-25T04:35:40;4.40;;;3.80;;
71648;SDS011;59492;45.638;11.714;2023-01-25T04:38:06;3.30;;;3.00;;
71648;SDS011;59492;45.638;11.714;2023-01-25T04:40:33;4.50;;;3.70;;
71648;SDS011;59492;45.638;11.714;2023-01-25T04:42:59;4.10;;;3.70;;
71648;SDS011;59492;45.638;11.714;2023-01-25T04:45:25;4.30;;;3.70;;
71648;SDS011;59492;45.638;11.714;2023-01-25T04:47:55;4.00;;;3.60;;
71648;SDS011;59492;45.638;11.714;2023-01-25T04:50:22;3.90;;;3.50;;
71648;SDS011;59492;45.638;11.714;2023-01-25T04:52:48;4.00;;;3.60;;
71648;SDS011;59492;45.638;11.714;2023-01-25T04:55:14;3.90;;;3.50;;
71648;SDS011;59492;45.638;11.714;2023-01-25T04:57:40;4.00;;;3.60;;
71648;SDS011;59492;45.638;11.714;2023-01-25T05:00:06;3.80;;;3.50;;
71648;SDS011;59492;45.638;11.714;2023-01-25T05:02:32;3.80;;;3.40;;
71648;SDS011;59492;45.638;11.714;2023-01-25T05:04:58;3.80;;;3.40;;
71648;SDS011;59492;45.638;11.714;2023-01-25T05:07:23;3.80;;;3.50;;
71648;SDS011;59492;45.638;11.714;2023-01-25T05:09:49;5.10;;;3.60;;
71648;SDS011;59492;45.638;11.714;2023-01-25T05:12:15;4.00;;;3.60;;
71648;SDS011;59492;45.638;11.714;2023-01-25T05:14:40;3.70;;;3.20;;
71648;SDS011;59492;45.638;11.714;2023-01-25T05:17:06;3.80;;;3.30;;
71648;SDS011;59492;45.638;11.714;2023-01-25T05:19:34;3.70;;;3.30;;
71648;SDS011;59492;45.638;11.714;2023-01-25T05:22:01;4.40;;;3.40;;
71648;SDS011;59492;45.638;11.714;2023-01-25T05:24:32;3.50;;;3.20;;
71648;SDS011;59492;45.638;11.714;2023-01-25T05:27:01;3.90;;;3.50;;
71648;SDS011;59492;45.638;11.714;2023-01-25T05:29:30;4.60;;;3.50;;
71648;SDS011;59492;45.638;11.714;2023-01-25T05:32:19;4.00;;;3.40;;
71648;SDS011;59492;45.638;11.714;2023-01-25T05:34:47;3.30;;;3.00;;
71648;SDS011;59492;45.638;11.714;2023-01-25T05:37:16;3.90;;;3.50;;
71648;SDS011;59492;45.638;11.714;2023-01-25T05:39:47;3.90;;;3.20;;
71648;SDS011;59492;45.638;11.714;2023-01-25T05:42:16;3.20;;;2.90;;
71648;SDS011;59492;45.638;11.714;2023-01-25T05:44:45;4.10;;;3.30;;
71648;SDS011;59492;45.638;11.714;2023-01-25T05:47:12;4.10;;;3.60;;
71648;SDS011;59492;45.638;11.714;2023-01-25T05:49:38;3.50;;;3.00;;
71648;SDS011;59492;45.638;11.714;2023-01-25T05:52:04;4.00;;;3.60;;
71648;SDS011;59492;45.638;11.714;2023-01-25T05:54:30;3.90;;;3.50;;
71648;SDS011;59492;45.638;11.714;2023-01-25T05:56:56;3.60;;;3.00;;
71648;SDS011;59492;45.638;11.714;2023-01-25T05:59:23;4.00;;;3.50;;
71648;SDS011;59492;45.638;11.714;2023-01-25T06:01:48;4.50;;;3.20;;
71648;SDS011;59492;45.638;11.714;2023-01-25T06:04:14;4.80;;;3.10;;
71648;SDS011;59492;45.638;11.714;2023-01-25T06:06:41;4.00;;;3.40;;
71648;SDS011;59492;45.638;11.714;2023-01-25T06:09:07;3.70;;;3.10;;
71648;SDS011;59492;45.638;11.714;2023-01-25T06:11:35;3.80;;;2.90;;
71648;SDS011;59492;45.638;11.714;2023-01-25T06:14:00;3.70;;;3.40;;
71648;SDS011;59492;45.638;11.714;2023-01-25T06:16:26;3.50;;;3.20;;
71648;SDS011;59492;45.638;11.714;2023-01-25T06:18:51;3.50;;;3.20;;
71648;SDS011;59492;45.638;11.714;2023-01-25T06:21:17;3.60;;;3.20;;
71648;SDS011;59492;45.638;11.714;2023-01-25T06:23:43;3.10;;;2.70;;
71648;SDS011;59492;45.638;11.714;2023-01-25T06:26:09;4.80;;;3.30;;
71648;SDS011;59492;45.638;11.714;2023-01-25T06:28:38;3.70;;;3.20;;
71648;SDS011;59492;45.638;11.714;2023-01-25T06:31:08;3.60;;;3.10;;
71648;SDS011;59492;45.638;11.714;2023-01-25T06:33:38;3.40;;;3.10;;
71648;SDS011;59492;45.638;11.714;2023-01-25T06:36:06;3.50;;;3.20;;
71648;SDS011;59492;45.638;11.714;2023-01-25T06:38:35;3.80;;;3.20;;
71648;SDS011;59492;45.638;11.714;2023-01-25T06:41:02;3.40;;;3.00;;
71648;SDS011;59492;45.638;11.714;2023-01-25T06:43:29;3.40;;;3.10;;
71648;SDS011;59492;45.638;11.714;2023-01-25T06:46:01;3.30;;;3.00;;
71648;SDS011;59492;45.638;11.714;2023-01-25T06:48:28;3.80;;;2.90;;
71648;SDS011;59492;45.638;11.714;2023-01-25T06:50:56;5.80;;;3.20;;
71648;SDS011;59492;45.638;11.714;2023-01-25T06:53:25;9.00;;;3.40;;
71648;SDS011;59492;45.638;11.714;2023-01-25T06:55:55;7.90;;;3.30;;
71648;SDS011;59492;45.638;11.714;2023-01-25T06:58:22;6.40;;;3.40;;
71648;SDS011;59492;45.638;11.714;2023-01-25T07:00:48;3.80;;;3.40;;
71648;SDS011;59492;45.638;11.714;2023-01-25T07:03:17;5.00;;;3.60;;
71648;SDS011;59492;45.638;11.714;2023-01-25T07:05:42;7.20;;;3.80;;
71648;SDS011;59492;45.638;11.714;2023-01-25T07:08:08;5.30;;;3.70;;
71648;SDS011;59492;45.638;11.714;2023-01-25T07:10:34;10.20;;;3.60;;
71648;SDS011;59492;45.638;11.714;2023-01-25T07:13:00;6.00;;;3.60;;
71648;SDS011;59492;45.638;11.714;2023-01-25T07:15:29;4.90;;;3.30;;
71648;SDS011;59492;45.638;11.714;2023-01-25T07:17:58;4.80;;;3.70;;
71648;SDS011;59492;45.638;11.714;2023-01-25T07:20:23;5.80;;;3.50;;
71648;SDS011;59492;45.638;11.714;2023-01-25T07:22:49;9.30;;;3.50;;
71648;SDS011;59492;45.638;11.714;2023-01-25T07:25:15;4.40;;;3.50;;
71648;SDS011;59492;45.638;11.714;2023-01-25T07:27:40;6.00;;;3.80;;
71648;SDS011;59492;45.638;11.714;2023-01-25T07:30:06;5.20;;;3.60;;
71648;SDS011;59492;45.638;11.714;2023-01-25T07:32:32;4.50;;;3.40;;
71648;SDS011;59492;45.638;11.714;2023-01-25T07:34:58;7.00;;;3.70;;
71648;SDS011;59492;45.638;11.714;2023-01-25T07:37:24;6.30;;;3.50;;
71648;SDS011;59492;45.638;11.714;2023-01-25T07:39:51;4.90;;;3.30;;
71648;SDS011;59492;45.638;11.714;2023-01-25T07:42:17;6.00;;;3.60;;
71648;SDS011;59492;45.638;11.714;2023-01-25T07:44:43;5.20;;;3.20;;
71648;SDS011;59492;45.638;11.714;2023-01-25T07:47:08;6.40;;;3.60;;
71648;SDS011;59492;45.638;11.714;2023-01-25T07:49:34;5.60;;;3.70;;
71648;SDS011;59492;45.638;11.714;2023-01-25T07:51:59;5.20;;;3.40;;
71648;SDS011;59492;45.638;11.714;2023-01-25T07:54:25;3.90;;;3.40;;
71648;SDS011;59492;45.638;11.714;2023-01-25T07:56:50;3.50;;;3.20;;
71648;SDS011;59492;45.638;11.714;2023-01-25T07:59:16;5.80;;;3.40;;
71648;SDS011;59492;45.638;11.714;2023-01-25T08:01:42;5.60;;;3.30;;
71648;SDS011;59492;45.638;11.714;2023-01-25T08:04:07;5.10;;;3.40;;
71648;SDS011;59492;45.638;11.714;2023-01-25T08:06:34;5.70;;;3.60;;
71648;SDS011;59492;45.638;11.714;2023-01-25T08:09:07;6.30;;;4.10;;
71648;SDS011;59492;45.638;11.714;2023-01-25T08:11:36;4.20;;;3.40;;
71648;SDS011;59492;45.638;11.714;2023-01-25T08:14:02;7.80;;;3.10;;
71648;SDS011;59492;45.638;11.714;2023-01-25T08:16:29;3.90;;;3.40;;
71648;SDS011;59492;45.638;11.714;2023-01-25T08:18:59;7.50;;;3.80;;
71648;SDS011;59492;45.638;11.714;2023-01-25T08:21:27;4.10;;;3.30;;
71648;SDS011;59492;45.638;11.714;2023-01-25T08:23:59;4.90;;;3.20;;
71648;SDS011;59492;45.638;11.714;2023-01-25T08:26:28;5.80;;;3.50;;
71648;SDS011;59492;45.638;11.714;2023-01-25T08:28:54;4.20;;;3.50;;
71648;SDS011;59492;45.638;11.714;2023-01-25T08:31:21;4.20;;;3.20;;
71648;SDS011;59492;45.638;11.714;2023-01-25T08:33:51;4.50;;;3.30;;
71648;SDS011;59492;45.638;11.714;2023-01-25T08:36:19;6.40;;;3.50;;
71648;SDS011;59492;45.638;11.714;2023-01-25T08:38:57;5.30;;;3.80;;
71648;SDS011;59492;45.638;11.714;2023-01-25T08:41:29;5.10;;;3.70;;
71648;SDS011;59492;45.638;11.714;2023-01-25T08:43:58;4.40;;;3.30;;
71648;SDS011;59492;45.638;11.714;2023-01-25T08:46:32;4.20;;;3.30;;
71648;SDS011;59492;45.638;11.714;2023-01-25T08:49:03;6.00;;;3.50;;
71648;SDS011;59492;45.638;11.714;2023-01-25T08:51:40;3.60;;;3.20;;
71648;SDS011;59492;45.638;11.714;2023-01-25T08:54:07;4.60;;;3.70;;
71648;SDS011;59492;45.638;11.714;2023-01-25T08:56:35;4.20;;;3.40;;
71648;SDS011;59492;45.638;11.714;2023-01-25T08:59:06;4.10;;;3.60;;
71648;SDS011;59492;45.638;11.714;2023-01-25T09:01:40;5.60;;;3.50;;
71648;SDS011;59492;45.638;11.714;2023-01-25T09:04:07;4.50;;;3.40;;
71648;SDS011;59492;45.638;11.714;2023-01-25T09:06:34;4.80;;;3.50;;
71648;SDS011;59492;45.638;11.714;2023-01-25T09:09:00;4.00;;;3.50;;
71648;SDS011;59492;45.638;11.714;2023-01-25T09:11:27;4.20;;;3.40;;
71648;SDS011;59492;45.638;11.714;2023-01-25T09:13:52;4.10;;;3.30;;
71648;SDS011;59492;45.638;11.714;2023-01-25T09:16:19;3.30;;;3.00;;
71648;SDS011;59492;45.638;11.714;2023-01-25T09:18:52;3.40;;;3.10;;
71648;SDS011;59492;45.638;11.714;2023-01-25T09:21:20;3.50;;;3.10;;
71648;SDS011;59492;45.638;11.714;2023-01-25T09:23:49;4.40;;;3.30;;
71648;SDS011;59492;45.638;11.714;2023-01-25T09:26:16;4.40;;;3.30;;
71648;SDS011;59492;45.638;11.714;2023-01-25T09:28:45;4.90;;;3.30;;
71648;SDS011;59492;45.638;11.714;2023-01-25T09:31:12;4.10;;;3.00;;
71648;SDS011;59492;45.638;11.714;2023-01-25T09:33:39;3.20;;;2.90;;
71648;SDS011;59492;45.638;11.714;2023-01-25T09:36:05;3.20;;;2.90;;
71648;SDS011;59492;45.638;11.714;2023-01-25T09:38:31;3.40;;;2.80;;
71648;SDS011;59492;45.638;11.714;2023-01-25T09:46:36;3.40;;;2.90;;
71648;SDS011;59492;45.638;11.714;2023-01-25T09:49:14;3.70;;;3.20;;
71648;SDS011;59492;45.638;11.714;2023-01-25T09:54:15;5.30;;;3.50;;
71648;SDS011;59492;45.638;11.714;2023-01-25T09:56:43;4.60;;;3.30;;
71648;SDS011;59492;45.638;11.714;2023-01-25T09:59:12;3.70;;;3.00;;
71648;SDS011;59492;45.638;11.714;2023-01-25T10:04:22;4.20;;;3.20;;
71648;SDS011;59492;45.638;11.714;2023-01-25T10:06:52;5.80;;;3.20;;
71648;SDS011;59492;45.638;11.714;2023-01-25T10:12:24;3.90;;;3.10;;
71648;SDS011;59492;45.638;11.714;2023-01-25T10:14:50;4.50;;;3.30;;
71648;SDS011;59492;45.638;11.714;2023-01-25T10:17:22;3.90;;;3.40;;
71648;SDS011;59492;45.638;11.714;2023-01-25T10:20:06;3.70;;;3.20;;
71648;SDS011;59492;45.638;11.714;2023-01-25T10:22:42;3.40;;;3.10;;
71648;SDS011;59492;45.638;11.714;2023-01-25T10:25:22;4.20;;;3.20;;
71648;SDS011;59492;45.638;11.714;2023-01-25T10:30:47;4.00;;;3.50;;
71648;SDS011;59492;45.638;11.714;2023-01-25T10:33:17;3.80;;;3.30;;
71648;SDS011;59492;45.638;11.714;2023-01-25T10:35:45;4.70;;;2.90;;
71648;SDS011;59492;45.638;11.714;2023-01-25T10:41:00;4.00;;;3.30;;
71648;SDS011;59492;45.638;11.714;2023-01-25T10:43:40;3.60;;;3.20;;
71648;SDS011;59492;45.638;11.714;2023-01-25T10:46:24;7.60;;;3.20;;
71648;SDS011;59492;45.638;11.714;2023-01-25T10:48:50;3.50;;;3.20;;
71648;SDS011;59492;45.638;11.714;2023-01-25T10:51:29;3.80;;;3.30;;
71648;SDS011;59492;45.638;11.714;2023-01-25T10:54:04;4.90;;;3.10;;
71648;SDS011;59492;45.638;11.714;2023-01-25T10:56:33;3.70;;;3.10;;
71648;SDS011;59492;45.638;11.714;2023-01-25T10:59:07;4.10;;;3.40;;
71648;SDS011;59492;45.638;11.714;2023-01-25T11:01:38;3.30;;;2.80;;
71648;SDS011;59492;45.638;11.714;2023-01-25T11:04:03;3.40;;;3.10;;
71648;SDS011;59492;45.638;11.714;2023-01-25T11:06:53;4.10;;;3.10;;
71648;SDS011;59492;45.638;11.714;2023-01-25T11:11:54;4.10;;;3.30;;
71648;SDS011;59492;45.638;11.714;2023-01-25T11:14:21;3.50;;;3.20;;
71648;SDS011;59492;45.638;11.714;2023-01-25T11:16:48;5.60;;;3.20;;
71648;SDS011;59492;45.638;11.714;2023-01-25T11:19:47;3.10;;;2.80;;
71648;SDS011;59492;45.638;11.714;2023-01-25T11:22:19;5.70;;;3.00;;
71648;SDS011;59492;45.638;11.714;2023-01-25T11:24:50;5.70;;;3.40;;
71648;SDS011;59492;45.638;11.714;2023-01-25T11:27:17;4.30;;;3.40;;
71648;SDS011;59492;45.638;11.714;2023-01-25T11:29:45;3.30;;;3.00;;
71648;SDS011;59492;45.638;11.714;2023-01-25T11:32:31;3.70;;;3.40;;
71648;SDS011;59492;45.638;11.714;2023-01-25T11:34:57;4.30;;;3.30;;
71648;SDS011;59492;45.638;11.714;2023-01-25T11:40:02;5.70;;;3.40;;
71648;SDS011;59492;45.638;11.714;2023-01-25T11:45:56;5.50;;;3.80;;
71648;SDS011;59492;45.638;11.714;2023-01-25T11:59:29;7.70;;;3.30;;
71648;SDS011;59492;45.638;11.714;2023-01-25T12:08:01;8.20;;;3.60;;
71648;SDS011;59492;45.638;11.714;2023-01-25T12:16:22;6.90;;;3.40;;
71648;SDS011;59492;45.638;11.714;2023-01-25T12:19:25;4.10;;;3.20;;
71648;SDS011;59492;45.638;11.714;2023-01-25T12:28:11;7.10;;;3.30;;
71648;SDS011;59492;45.638;11.714;2023-01-25T12:33:16;6.60;;;3.70;;
71648;SDS011;59492;45.638;11.714;2023-01-25T12:55:06;7.80;;;3.20;;
71648;SDS011;59492;45.638;11.714;2023-01-25T13:00:35;3.50;;;3.10;;
71648;SDS011;59492;45.638;11.714;2023-01-25T13:03:16;4.80;;;3.50;;
71648;SDS011;59492;45.638;11.714;2023-01-25T13:11:38;4.90;;;3.50;;
71648;SDS011;59492;45.638;11.714;2023-01-25T13:16:44;4.50;;;2.90;;
71648;SDS011;59492;45.638;11.714;2023-01-25T13:19:37;4.80;;;3.40;;
71648;SDS011;59492;45.638;11.714;2023-01-25T13:21:59;7.10;;;3.60;;
71648;SDS011;59492;45.638;11.714;2023-01-25T13:24:25;5.00;;;3.50;;
71648;SDS011;59492;45.638;11.714;2023-01-25T13:31:55;4.70;;;3.60;;
71648;SDS011;59492;45.638;11.714;2023-01-25T13:37:00;5.60;;;3.40;;
71648;SDS011;59492;45.638;11.714;2023-01-25T13:42:18;3.90;;;3.20;;
71648;SDS011;59492;45.638;11.714;2023-01-25T13:44:55;6.70;;;3.10;;
71648;SDS011;59492;45.638;11.714;2023-01-25T13:47:34;4.10;;;3.10;;
71648;SDS011;59492;45.638;11.714;2023-01-25T13:52:38;4.90;;;3.50;;
71648;SDS011;59492;45.638;11.714;2023-01-25T13:55:19;5.50;;;3.40;;
71648;SDS011;59492;45.638;11.714;2023-01-25T13:57:45;4.40;;;3.30;;
71648;SDS011;59492;45.638;11.714;2023-01-25T14:00:14;5.50;;;2.80;;
71648;SDS011;59492;45.638;11.714;2023-01-25T14:02:42;3.50;;;3.10;;
71648;SDS011;59492;45.638;11.714;2023-01-25T14:05:18;4.60;;;3.20;;
71648;SDS011;59492;45.638;11.714;2023-01-25T14:07:49;4.20;;;3.00;;
71648;SDS011;59492;45.638;11.714;2023-01-25T14:10:18;4.20;;;2.80;;
71648;SDS011;59492;45.638;11.714;2023-01-25T14:12:48;5.90;;;3.50;;
71648;SDS011;59492;45.638;11.714;2023-01-25T14:20:39;3.30;;;2.70;;
71648;SDS011;59492;45.638;11.714;2023-01-25T14:23:17;5.80;;;2.70;;
71648;SDS011;59492;45.638;11.714;2023-01-25T14:25:44;3.60;;;2.80;;
71648;SDS011;59492;45.638;11.714;2023-01-25T14:28:10;3.90;;;3.00;;
71648;SDS011;59492;45.638;11.714;2023-01-25T14:30:38;3.70;;;3.00;;
71648;SDS011;59492;45.638;11.714;2023-01-25T14:35:50;3.90;;;2.80;;
71648;SDS011;59492;45.638;11.714;2023-01-25T14:38:18;5.00;;;2.80;;
71648;SDS011;59492;45.638;11.714;2023-01-25T14:40:49;3.60;;;3.00;;
71648;SDS011;59492;45.638;11.714;2023-01-25T14:43:18;4.10;;;2.80;;
71648;SDS011;59492;45.638;11.714;2023-01-25T14:45:45;4.20;;;2.90;;
71648;SDS011;59492;45.638;11.714;2023-01-25T14:51:03;4.80;;;2.60;;
71648;SDS011;59492;45.638;11.714;2023-01-25T14:53:36;2.90;;;2.50;;
71648;SDS011;59492;45.638;11.714;2023-01-25T14:56:10;4.00;;;3.10;;
71648;SDS011;59492;45.638;11.714;2023-01-25T14:58:56;3.10;;;2.60;;
71648;SDS011;59492;45.638;11.714;2023-01-25T15:01:37;4.40;;;2.80;;
71648;SDS011;59492;45.638;11.714;2023-01-25T15:04:08;3.30;;;2.60;;
71648;SDS011;59492;45.638;11.714;2023-01-25T15:06:46;3.20;;;2.80;;
71648;SDS011;59492;45.638;11.714;2023-01-25T15:09:34;3.10;;;2.70;;
71648;SDS011;59492;45.638;11.714;2023-01-25T15:12:03;3.30;;;2.50;;
71648;SDS011;59492;45.638;11.714;2023-01-25T15:14:51;3.90;;;2.80;;
71648;SDS011;59492;45.638;11.714;2023-01-25T15:17:37;3.30;;;3.00;;
71648;SDS011;59492;45.638;11.714;2023-01-25T15:20:05;3.70;;;2.90;;
71648;SDS011;59492;45.638;11.714;2023-01-25T15:22:32;5.00;;;2.80;;
71648;SDS011;59492;45.638;11.714;2023-01-25T15:24:57;5.00;;;3.10;;
71648;SDS011;59492;45.638;11.714;2023-01-25T15:27:23;4.10;;;3.00;;
71648;SDS011;59492;45.638;11.714;2023-01-25T15:29:51;4.90;;;2.80;;
71648;SDS011;59492;45.638;11.714;2023-01-25T15:32:18;5.20;;;2.70;;
71648;SDS011;59492;45.638;11.714;2023-01-25T15:34:45;5.60;;;2.80;;
71648;SDS011;59492;45.638;11.714;2023-01-25T15:37:11;4.50;;;3.20;;
71648;SDS011;59492;45.638;11.714;2023-01-25T15:39:42;4.70;;;2.70;;
71648;SDS011;59492;45.638;11.714;2023-01-25T15:42:08;4.50;;;3.00;;
71648;SDS011;59492;45.638;11.714;2023-01-25T15:44:37;3.90;;;2.90;;
71648;SDS011;59492;45.638;11.714;2023-01-25T15:47:03;5.60;;;3.30;;
71648;SDS011;59492;45.638;11.714;2023-01-25T15:49:31;6.30;;;3.10;;
71648;SDS011;59492;45.638;11.714;2023-01-25T15:51:56;4.60;;;3.30;;
71648;SDS011;59492;45.638;11.714;2023-01-25T15:54:22;6.10;;;3.10;;
71648;SDS011;59492;45.638;11.714;2023-01-25T15:56:50;4.20;;;2.90;;
71648;SDS011;59492;45.638;11.714;2023-01-25T15:59:19;9.30;;;3.30;;
71648;SDS011;59492;45.638;11.714;2023-01-25T16:01:45;4.20;;;3.40;;
71648;SDS011;59492;45.638;11.714;2023-01-25T16:04:11;4.80;;;3.20;;
71648;SDS011;59492;45.638;11.714;2023-01-25T16:06:44;4.00;;;3.10;;
71648;SDS011;59492;45.638;11.714;2023-01-25T16:09:23;4.00;;;3.00;;
71648;SDS011;59492;45.638;11.714;2023-01-25T16:11:54;5.50;;;3.40;;
71648;SDS011;59492;45.638;11.714;2023-01-25T16:14:22;6.10;;;3.00;;
71648;SDS011;59492;45.638;11.714;2023-01-25T16:16:53;5.10;;;3.20;;
71648;SDS011;59492;45.638;11.714;2023-01-25T16:19:21;4.50;;;3.20;;
71648;SDS011;59492;45.638;11.714;2023-01-25T16:21:48;4.10;;;3.30;;
71648;SDS011;59492;45.638;11.714;2023-01-25T16:24:14;4.70;;;3.10;;
71648;SDS011;59492;45.638;11.714;2023-01-25T16:26:51;4.30;;;3.20;;
71648;SDS011;59492;45.638;11.714;2023-01-25T16:29:17;4.80;;;3.20;;
71648;SDS011;59492;45.638;11.714;2023-01-25T16:31:43;5.20;;;3.10;;
71648;SDS011;59492;45.638;11.714;2023-01-25T16:34:08;5.40;;;3.20;;
71648;SDS011;59492;45.638;11.714;2023-01-25T16:36:34;5.60;;;3.00;;
71648;SDS011;59492;45.638;11.714;2023-01-25T16:39:07;5.40;;;2.70;;
71648;SDS011;59492;45.638;11.714;2023-01-25T16:41:39;8.10;;;3.30;;
71648;SDS011;59492;45.638;11.714;2023-01-25T16:44:05;5.40;;;3.10;;
71648;SDS011;59492;45.638;11.714;2023-01-25T16:46:32;4.70;;;3.30;;